createdAt,value
2022-09-26T01:22:27.447Z,12.0
2022-09-26T04:00:55.937Z,11.76
2022-09-26T04:11:11.120Z,11.69
2022-09-26T04:31:41.694Z,11.58
2022-09-26T04:47:06.544Z,11.48
2022-09-26T04:52:14.448Z,11.36
2022-09-26T04:57:23.000Z,11.32
2022-09-26T05:02:30.649Z,11.25
2022-09-26T05:07:37.865Z,11.15
2022-09-26T05:12:45.256Z,11.06
2022-09-26T05:17:52.258Z,10.97
2022-09-26T05:23:00.252Z,10.92
2022-09-26T05:28:09.107Z,10.9
2022-09-26T05:38:24.920Z,11.02
2022-09-26T05:43:33.909Z,11.22
2022-09-26T05:48:41.877Z,11.42
2022-09-26T05:53:49.688Z,11.61
2022-09-26T05:58:57.931Z,11.76
2022-09-26T06:04:05.422Z,11.89
2022-09-26T06:14:21.077Z,12.08
2022-09-26T06:19:30.175Z,12.12
2022-09-26T06:24:38.017Z,12.16
2022-09-26T06:29:45.217Z,12.26
2022-09-26T06:34:53.102Z,12.4
2022-09-26T06:40:00.942Z,12.68
2022-09-26T06:45:08.605Z,13.13
2022-09-26T06:50:17.221Z,13.46
2022-09-26T06:55:24.416Z,13.8
2022-09-26T07:00:32.820Z,14.7
2022-09-26T07:05:41.686Z,15.38
2022-09-26T07:10:49.262Z,15.48
2022-09-26T07:15:57.558Z,15.88
2022-09-26T07:21:06.708Z,16.25
2022-09-26T07:26:13.381Z,16.79
2022-09-26T07:31:20.579Z,16.96
2022-09-26T07:36:29.919Z,17.3
2022-09-26T07:41:37.592Z,17.88
2022-09-26T07:46:44.783Z,18.12
2022-09-26T07:51:52.565Z,18.66
2022-09-26T07:57:00.265Z,19.5
2022-09-26T08:02:09.315Z,20.26
2022-09-26T08:07:17.590Z,21.0
2022-09-26T08:12:25.258Z,21.64
2022-09-26T08:17:34.720Z,21.84
2022-09-26T08:22:42.541Z,21.67
2022-09-26T08:27:51.518Z,22.0
2022-09-26T08:32:57.857Z,22.21
2022-09-26T08:38:05.708Z,22.71
2022-09-26T08:43:12.898Z,23.34
2022-09-26T08:48:21.341Z,22.84
2022-09-26T08:53:27.991Z,22.12
2022-09-26T08:58:35.826Z,21.31
2022-09-26T09:03:44.015Z,20.58
2022-09-26T09:08:50.881Z,20.12
2022-09-26T09:14:00.037Z,19.94
2022-09-26T09:19:08.448Z,20.88
2022-09-26T09:24:14.975Z,21.48
2022-09-26T09:29:21.613Z,21.73
2022-09-26T09:34:28.731Z,22.26
2022-09-26T09:39:36.124Z,23.11
2022-09-26T09:44:44.091Z,23.49
2022-09-26T09:49:52.020Z,23.28
2022-09-26T09:55:00.058Z,23.9
2022-09-26T10:00:06.700Z,24.2
2022-09-26T10:05:13.899Z,23.28
2022-09-26T10:10:21.417Z,21.84
2022-09-26T10:15:29.734Z,20.89
2022-09-26T10:20:37.373Z,20.66
2022-09-26T10:25:45.309Z,20.44
2022-09-26T10:30:53.693Z,20.98
2022-09-26T10:36:01.040Z,22.26
2022-09-26T10:41:08.096Z,22.64
2022-09-26T10:46:15.822Z,22.03
2022-09-26T10:51:22.502Z,21.22
2022-09-26T10:56:29.838Z,20.26
2022-09-26T11:01:36.577Z,19.8
2022-09-26T11:06:44.847Z,20.33
2022-09-26T11:11:54.489Z,21.51
2022-09-26T11:17:01.906Z,22.29
2022-09-26T11:22:11.392Z,22.68
2022-09-26T11:27:19.343Z,22.94
2022-09-26T11:32:26.541Z,23.2
2022-09-26T11:37:33.857Z,23.16
2022-09-26T11:42:45.636Z,23.14
2022-09-26T11:47:52.579Z,22.89
2022-09-26T11:53:01.448Z,22.82
2022-09-26T11:58:09.611Z,22.49
2022-09-26T12:03:17.513Z,21.38
2022-09-26T12:08:25.232Z,20.34
2022-09-26T12:13:33.336Z,19.98
2022-09-26T12:18:42.471Z,20.56
2022-09-26T12:23:51.168Z,21.28
2022-09-26T12:29:00.277Z,21.76
2022-09-26T12:34:07.555Z,21.62
2022-09-26T12:39:15.223Z,21.23
2022-09-26T12:44:22.779Z,21.0
2022-09-26T12:49:30.250Z,21.02
2022-09-26T12:54:37.768Z,21.1
2022-09-26T12:59:46.550Z,21.26
2022-09-26T13:04:54.013Z,21.33
2022-09-26T13:10:01.165Z,21.2
2022-09-26T13:15:08.822Z,20.8
2022-09-26T13:20:17.290Z,20.56
2022-09-26T13:25:24.516Z,20.43
2022-09-26T13:30:32.674Z,20.3
2022-09-26T13:35:39.822Z,20.14
2022-09-26T13:40:46.935Z,19.96
2022-09-26T13:45:54.874Z,19.84
2022-09-26T13:51:02.070Z,19.76
2022-09-26T13:56:09.853Z,19.7
2022-09-26T14:01:18.766Z,19.67
2022-09-26T14:06:26.743Z,19.64
2022-09-26T14:11:34.666Z,19.52
2022-09-26T14:16:42.018Z,19.39
2022-09-26T14:21:49.063Z,19.06
2022-09-26T14:26:56.260Z,18.59
2022-09-26T14:32:03.730Z,18.18
2022-09-26T14:37:12.189Z,17.84
2022-09-26T14:42:19.460Z,17.56
2022-09-26T14:47:27.186Z,17.54
2022-09-26T14:52:34.293Z,17.65
2022-09-26T14:57:40.807Z,17.71
2022-09-26T15:02:49.251Z,17.75
2022-09-26T15:07:57.604Z,17.8
2022-09-26T15:18:13.645Z,17.91
2022-09-26T15:23:19.915Z,17.89
2022-09-26T15:28:27.875Z,17.82
2022-09-26T15:33:35.825Z,17.7
2022-09-26T15:38:43.128Z,17.49
2022-09-26T15:43:50.614Z,17.28
2022-09-26T15:48:57.273Z,17.07
2022-09-26T15:54:04.941Z,16.75
